Archival Weather

Yakutsk

Yakutsk, Russia (UEEE)

Report from: Tuesday, June 6, 2023 7:00 PM JST
Current time: Wednesday, May 29, 2024 6:39 PM JST

Current weather – Weather history – Daily summaries
Weather forecast

Temperature21.0°C (69.8°F)
Dew point3.0°C (37.4°F)
Winds 7.8 kts (4 m/s, 8.9 mph) North-Northwest (340°)
Clouds Sky clear
Altimeter29.56 in.Hg (1001 mB)
Precip. events QF 9:22 PM
Relative humidity31 %
Density altitude1,229 ft. (375 m)
Remarks Ceiling and visibility OK
No significant changes expected in the next two hours
Flight conditions Visual Meteorological Conditions
Raw dataUEEE 061000Z 34004MPS CAVOK 21/03 Q1001 R05/09//60 NOSIG RMK QFE742
An error has occurred. This application may no longer respond until reloaded. Reload 🗙